sensor_id;sensor_type;location;lat;lon;timestamp;P1;durP1;ratioP1;P2;durP2;ratioP2
9675;SDS011;4876;42.656;23.292;2023-04-24T00:01:56;14.83;;;9.77;;
9675;SDS011;4876;42.656;23.292;2023-04-24T00:04:23;12.93;;;8.50;;
9675;SDS011;4876;42.656;23.292;2023-04-24T00:06:51;14.10;;;9.07;;
9675;SDS011;4876;42.656;23.292;2023-04-24T00:09:20;17.00;;;9.90;;
9675;SDS011;4876;42.656;23.292;2023-04-24T00:11:47;13.70;;;9.57;;
9675;SDS011;4876;42.656;23.292;2023-04-24T00:14:14;12.23;;;9.63;;
9675;SDS011;4876;42.656;23.292;2023-04-24T00:16:41;14.30;;;9.27;;
9675;SDS011;4876;42.656;23.292;2023-04-24T00:19:08;15.93;;;9.87;;
9675;SDS011;4876;42.656;23.292;2023-04-24T00:21:36;13.50;;;8.90;;
9675;SDS011;4876;42.656;23.292;2023-04-24T00:24:03;13.43;;;8.93;;
9675;SDS011;4876;42.656;23.292;2023-04-24T00:26:32;16.10;;;9.87;;
9675;SDS011;4876;42.656;23.292;2023-04-24T00:28:59;15.03;;;9.13;;
9675;SDS011;4876;42.656;23.292;2023-04-24T00:31:26;13.73;;;8.67;;
9675;SDS011;4876;42.656;23.292;2023-04-24T00:33:53;11.87;;;9.13;;
9675;SDS011;4876;42.656;23.292;2023-04-24T00:36:20;14.57;;;8.80;;
9675;SDS011;4876;42.656;23.292;2023-04-24T00:38:46;11.07;;;8.17;;
9675;SDS011;4876;42.656;23.292;2023-04-24T00:41:13;11.40;;;8.83;;
9675;SDS011;4876;42.656;23.292;2023-04-24T00:43:42;14.00;;;9.17;;
9675;SDS011;4876;42.656;23.292;2023-04-24T00:46:08;14.80;;;8.43;;
9675;SDS011;4876;42.656;23.292;2023-04-24T00:48:36;11.73;;;8.73;;
9675;SDS011;4876;42.656;23.292;2023-04-24T00:51:05;11.57;;;8.93;;
9675;SDS011;4876;42.656;23.292;2023-04-24T00:53:31;11.83;;;9.20;;
9675;SDS011;4876;42.656;23.292;2023-04-24T00:55:58;11.90;;;8.67;;
9675;SDS011;4876;42.656;23.292;2023-04-24T00:58:26;11.53;;;8.63;;
9675;SDS011;4876;42.656;23.292;2023-04-24T01:00:55;12.27;;;8.67;;
9675;SDS011;4876;42.656;23.292;2023-04-24T01:03:24;11.43;;;8.77;;
9675;SDS011;4876;42.656;23.292;2023-04-24T01:05:52;11.23;;;9.10;;
9675;SDS011;4876;42.656;23.292;2023-04-24T01:08:21;12.17;;;8.47;;
9675;SDS011;4876;42.656;23.292;2023-04-24T01:10:50;12.13;;;9.13;;
9675;SDS011;4876;42.656;23.292;2023-04-24T01:13:18;15.73;;;9.23;;
9675;SDS011;4876;42.656;23.292;2023-04-24T01:15:45;11.60;;;9.80;;
9675;SDS011;4876;42.656;23.292;2023-04-24T01:18:14;15.50;;;9.23;;
9675;SDS011;4876;42.656;23.292;2023-04-24T01:20:42;14.07;;;9.83;;
9675;SDS011;4876;42.656;23.292;2023-04-24T01:23:13;15.83;;;11.50;;
9675;SDS011;4876;42.656;23.292;2023-04-24T01:25:40;12.57;;;10.50;;
9675;SDS011;4876;42.656;23.292;2023-04-24T01:28:07;15.53;;;10.80;;
9675;SDS011;4876;42.656;23.292;2023-04-24T01:30:34;14.97;;;9.70;;
9675;SDS011;4876;42.656;23.292;2023-04-24T01:33:01;14.77;;;10.20;;
9675;SDS011;4876;42.656;23.292;2023-04-24T01:35:28;13.67;;;10.47;;
9675;SDS011;4876;42.656;23.292;2023-04-24T01:37:55;12.13;;;7.80;;
9675;SDS011;4876;42.656;23.292;2023-04-24T01:40:23;11.30;;;7.30;;
9675;SDS011;4876;42.656;23.292;2023-04-24T01:42:50;9.90;;;7.27;;
9675;SDS011;4876;42.656;23.292;2023-04-24T01:45:18;15.20;;;8.30;;
9675;SDS011;4876;42.656;23.292;2023-04-24T01:47:45;17.63;;;8.10;;
9675;SDS011;4876;42.656;23.292;2023-04-24T01:50:14;12.37;;;6.87;;
9675;SDS011;4876;42.656;23.292;2023-04-24T01:52:41;12.30;;;7.10;;
9675;SDS011;4876;42.656;23.292;2023-04-24T01:55:08;11.10;;;8.63;;
9675;SDS011;4876;42.656;23.292;2023-04-24T01:57:37;12.10;;;8.93;;
9675;SDS011;4876;42.656;23.292;2023-04-24T02:00:04;20.93;;;9.00;;
9675;SDS011;4876;42.656;23.292;2023-04-24T02:02:32;12.77;;;8.00;;
9675;SDS011;4876;42.656;23.292;2023-04-24T02:05:00;13.23;;;7.17;;
9675;SDS011;4876;42.656;23.292;2023-04-24T02:07:27;19.20;;;9.50;;
9675;SDS011;4876;42.656;23.292;2023-04-24T02:09:54;13.03;;;9.43;;
9675;SDS011;4876;42.656;23.292;2023-04-24T02:12:21;12.00;;;9.90;;
9675;SDS011;4876;42.656;23.292;2023-04-24T02:14:49;14.00;;;9.50;;
9675;SDS011;4876;42.656;23.292;2023-04-24T02:17:16;12.67;;;8.60;;
9675;SDS011;4876;42.656;23.292;2023-04-24T02:19:44;13.57;;;10.10;;
9675;SDS011;4876;42.656;23.292;2023-04-24T02:22:11;13.73;;;10.47;;
9675;SDS011;4876;42.656;23.292;2023-04-24T02:24:38;12.00;;;10.20;;
9675;SDS011;4876;42.656;23.292;2023-04-24T02:27:05;15.10;;;11.60;;
9675;SDS011;4876;42.656;23.292;2023-04-24T02:29:32;15.00;;;9.80;;
9675;SDS011;4876;42.656;23.292;2023-04-24T02:32:00;11.63;;;9.93;;
9675;SDS011;4876;42.656;23.292;2023-04-24T02:34:27;12.40;;;9.50;;
9675;SDS011;4876;42.656;23.292;2023-04-24T02:36:54;13.20;;;9.77;;
9675;SDS011;4876;42.656;23.292;2023-04-24T02:39:20;17.67;;;9.53;;
9675;SDS011;4876;42.656;23.292;2023-04-24T02:41:47;18.27;;;9.80;;
9675;SDS011;4876;42.656;23.292;2023-04-24T02:44:14;13.47;;;10.50;;
9675;SDS011;4876;42.656;23.292;2023-04-24T02:46:42;13.20;;;10.37;;
9675;SDS011;4876;42.656;23.292;2023-04-24T02:49:11;16.93;;;9.93;;
9675;SDS011;4876;42.656;23.292;2023-04-24T02:51:38;13.53;;;10.50;;
9675;SDS011;4876;42.656;23.292;2023-04-24T02:54:06;17.77;;;11.20;;
9675;SDS011;4876;42.656;23.292;2023-04-24T02:56:34;14.80;;;10.97;;
9675;SDS011;4876;42.656;23.292;2023-04-24T02:59:00;14.63;;;11.33;;
9675;SDS011;4876;42.656;23.292;2023-04-24T03:01:28;12.33;;;10.37;;
9675;SDS011;4876;42.656;23.292;2023-04-24T03:03:55;15.03;;;11.63;;
9675;SDS011;4876;42.656;23.292;2023-04-24T03:06:24;14.27;;;11.33;;
9675;SDS011;4876;42.656;23.292;2023-04-24T03:08:52;12.97;;;10.30;;
9675;SDS011;4876;42.656;23.292;2023-04-24T03:11:18;13.53;;;9.97;;
9675;SDS011;4876;42.656;23.292;2023-04-24T03:13:45;15.97;;;10.20;;
9675;SDS011;4876;42.656;23.292;2023-04-24T03:16:12;14.07;;;9.97;;
9675;SDS011;4876;42.656;23.292;2023-04-24T03:18:39;12.43;;;10.63;;
9675;SDS011;4876;42.656;23.292;2023-04-24T03:21:06;12.63;;;9.63;;
9675;SDS011;4876;42.656;23.292;2023-04-24T03:23:34;18.20;;;11.33;;
9675;SDS011;4876;42.656;23.292;2023-04-24T03:26:01;11.70;;;9.80;;
9675;SDS011;4876;42.656;23.292;2023-04-24T03:28:28;16.47;;;9.53;;
9675;SDS011;4876;42.656;23.292;2023-04-24T03:30:54;12.50;;;9.63;;
9675;SDS011;4876;42.656;23.292;2023-04-24T03:33:21;14.87;;;9.60;;
9675;SDS011;4876;42.656;23.292;2023-04-24T03:35:48;9.43;;;8.33;;
9675;SDS011;4876;42.656;23.292;2023-04-24T03:38:15;10.43;;;8.90;;
9675;SDS011;4876;42.656;23.292;2023-04-24T03:40:43;17.67;;;8.63;;
9675;SDS011;4876;42.656;23.292;2023-04-24T03:43:09;11.03;;;9.00;;
9675;SDS011;4876;42.656;23.292;2023-04-24T03:45:36;11.40;;;9.10;;
9675;SDS011;4876;42.656;23.292;2023-04-24T03:48:03;12.63;;;9.20;;
9675;SDS011;4876;42.656;23.292;2023-04-24T03:50:30;9.70;;;8.40;;
9675;SDS011;4876;42.656;23.292;2023-04-24T03:52:57;13.87;;;8.57;;
9675;SDS011;4876;42.656;23.292;2023-04-24T03:55:24;13.70;;;8.63;;
9675;SDS011;4876;42.656;23.292;2023-04-24T03:57:52;10.50;;;8.47;;
9675;SDS011;4876;42.656;23.292;2023-04-24T04:00:19;11.87;;;8.60;;
9675;SDS011;4876;42.656;23.292;2023-04-24T04:02:46;13.97;;;8.67;;
9675;SDS011;4876;42.656;23.292;2023-04-24T04:05:12;10.80;;;8.47;;
9675;SDS011;4876;42.656;23.292;2023-04-24T04:07:39;15.03;;;8.20;;
9675;SDS011;4876;42.656;23.292;2023-04-24T04:10:07;15.57;;;8.20;;
9675;SDS011;4876;42.656;23.292;2023-04-24T04:12:34;17.30;;;7.83;;
9675;SDS011;4876;42.656;23.292;2023-04-24T04:15:03;16.07;;;7.83;;
9675;SDS011;4876;42.656;23.292;2023-04-24T04:17:31;20.57;;;8.70;;
9675;SDS011;4876;42.656;23.292;2023-04-24T04:19:58;11.23;;;8.60;;
9675;SDS011;4876;42.656;23.292;2023-04-24T04:22:25;12.70;;;8.30;;
9675;SDS011;4876;42.656;23.292;2023-04-24T04:24:51;15.80;;;8.03;;
9675;SDS011;4876;42.656;23.292;2023-04-24T04:27:18;16.60;;;8.50;;
9675;SDS011;4876;42.656;23.292;2023-04-24T04:29:46;15.57;;;8.10;;
9675;SDS011;4876;42.656;23.292;2023-04-24T04:32:15;15.10;;;8.17;;
9675;SDS011;4876;42.656;23.292;2023-04-24T04:34:41;14.03;;;8.90;;
9675;SDS011;4876;42.656;23.292;2023-04-24T04:37:10;14.83;;;8.87;;
9675;SDS011;4876;42.656;23.292;2023-04-24T04:39:37;12.23;;;7.50;;
9675;SDS011;4876;42.656;23.292;2023-04-24T04:42:04;13.17;;;8.03;;
9675;SDS011;4876;42.656;23.292;2023-04-24T04:44:31;11.23;;;8.27;;
9675;SDS011;4876;42.656;23.292;2023-04-24T04:47:00;16.23;;;9.33;;
9675;SDS011;4876;42.656;23.292;2023-04-24T04:49:30;19.73;;;8.83;;
9675;SDS011;4876;42.656;23.292;2023-04-24T04:51:57;14.47;;;8.87;;
9675;SDS011;4876;42.656;23.292;2023-04-24T04:54:24;18.03;;;8.83;;
9675;SDS011;4876;42.656;23.292;2023-04-24T04:56:50;13.97;;;8.37;;
9675;SDS011;4876;42.656;23.292;2023-04-24T04:59:17;16.70;;;8.57;;
9675;SDS011;4876;42.656;23.292;2023-04-24T05:01:44;15.57;;;9.00;;
9675;SDS011;4876;42.656;23.292;2023-04-24T05:04:10;14.57;;;9.53;;
9675;SDS011;4876;42.656;23.292;2023-04-24T05:06:38;12.00;;;9.40;;
9675;SDS011;4876;42.656;23.292;2023-04-24T05:09:05;16.37;;;9.70;;
9675;SDS011;4876;42.656;23.292;2023-04-24T05:11:32;16.55;;;10.20;;
9675;SDS011;4876;42.656;23.292;2023-04-24T05:13:59;16.27;;;8.80;;
9675;SDS011;4876;42.656;23.292;2023-04-24T05:16:26;16.87;;;9.40;;
9675;SDS011;4876;42.656;23.292;2023-04-24T05:18:53;22.40;;;9.57;;
9675;SDS011;4876;42.656;23.292;2023-04-24T05:21:20;20.80;;;10.03;;
9675;SDS011;4876;42.656;23.292;2023-04-24T05:23:48;18.93;;;9.30;;
9675;SDS011;4876;42.656;23.292;2023-04-24T05:26:15;23.47;;;10.63;;
9675;SDS011;4876;42.656;23.292;2023-04-24T05:28:42;21.00;;;8.30;;
9675;SDS011;4876;42.656;23.292;2023-04-24T05:31:09;8.43;;;5.43;;
9675;SDS011;4876;42.656;23.292;2023-04-24T05:33:37;9.60;;;5.53;;
9675;SDS011;4876;42.656;23.292;2023-04-24T05:36:04;12.43;;;6.00;;
9675;SDS011;4876;42.656;23.292;2023-04-24T05:38:32;9.53;;;5.87;;
9675;SDS011;4876;42.656;23.292;2023-04-24T05:41:00;16.93;;;6.13;;
9675;SDS011;4876;42.656;23.292;2023-04-24T05:43:27;21.57;;;6.90;;
9675;SDS011;4876;42.656;23.292;2023-04-24T05:45:54;11.50;;;6.07;;
9675;SDS011;4876;42.656;23.292;2023-04-24T05:48:21;9.77;;;6.80;;
9675;SDS011;4876;42.656;23.292;2023-04-24T05:50:48;10.37;;;6.47;;
9675;SDS011;4876;42.656;23.292;2023-04-24T05:53:15;13.23;;;7.20;;
9675;SDS011;4876;42.656;23.292;2023-04-24T05:55:42;17.47;;;6.30;;
9675;SDS011;4876;42.656;23.292;2023-04-24T05:58:11;13.87;;;6.87;;
9675;SDS011;4876;42.656;23.292;2023-04-24T06:00:38;13.60;;;7.00;;
9675;SDS011;4876;42.656;23.292;2023-04-24T06:03:07;18.07;;;6.40;;
9675;SDS011;4876;42.656;23.292;2023-04-24T06:05:34;8.77;;;6.57;;
9675;SDS011;4876;42.656;23.292;2023-04-24T06:08:01;10.23;;;6.23;;
9675;SDS011;4876;42.656;23.292;2023-04-24T06:10:28;11.70;;;6.80;;
9675;SDS011;4876;42.656;23.292;2023-04-24T06:12:55;15.57;;;7.10;;
9675;SDS011;4876;42.656;23.292;2023-04-24T06:15:27;9.47;;;5.90;;
9675;SDS011;4876;42.656;23.292;2023-04-24T06:17:55;8.83;;;5.63;;
9675;SDS011;4876;42.656;23.292;2023-04-24T06:20:22;10.33;;;6.47;;
9675;SDS011;4876;42.656;23.292;2023-04-24T06:22:49;10.37;;;6.80;;
9675;SDS011;4876;42.656;23.292;2023-04-24T06:25:16;16.63;;;7.27;;
9675;SDS011;4876;42.656;23.292;2023-04-24T06:27:43;9.40;;;7.20;;
9675;SDS011;4876;42.656;23.292;2023-04-24T06:30:10;9.40;;;7.40;;
9675;SDS011;4876;42.656;23.292;2023-04-24T06:32:39;16.37;;;7.40;;
9675;SDS011;4876;42.656;23.292;2023-04-24T06:35:06;16.30;;;7.43;;
9675;SDS011;4876;42.656;23.292;2023-04-24T06:37:35;10.10;;;7.50;;
9675;SDS011;4876;42.656;23.292;2023-04-24T06:40:02;15.27;;;7.57;;
9675;SDS011;4876;42.656;23.292;2023-04-24T06:42:29;13.13;;;8.33;;
9675;SDS011;4876;42.656;23.292;2023-04-24T06:44:55;15.73;;;8.50;;
9675;SDS011;4876;42.656;23.292;2023-04-24T06:47:22;16.50;;;8.23;;
9675;SDS011;4876;42.656;23.292;2023-04-24T06:49:50;14.87;;;7.97;;
9675;SDS011;4876;42.656;23.292;2023-04-24T06:52:17;14.27;;;8.17;;
9675;SDS011;4876;42.656;23.292;2023-04-24T06:54:44;17.70;;;8.13;;
9675;SDS011;4876;42.656;23.292;2023-04-24T06:57:11;10.03;;;8.07;;
9675;SDS011;4876;42.656;23.292;2023-04-24T06:59:38;23.63;;;8.70;;
9675;SDS011;4876;42.656;23.292;2023-04-24T07:02:05;15.73;;;9.17;;
9675;SDS011;4876;42.656;23.292;2023-04-24T07:04:32;17.53;;;8.73;;
9675;SDS011;4876;42.656;23.292;2023-04-24T07:07:00;17.60;;;8.93;;
9675;SDS011;4876;42.656;23.292;2023-04-24T07:09:27;11.57;;;8.50;;
9675;SDS011;4876;42.656;23.292;2023-04-24T07:11:54;18.13;;;8.27;;
9675;SDS011;4876;42.656;23.292;2023-04-24T07:14:22;19.53;;;8.53;;
9675;SDS011;4876;42.656;23.292;2023-04-24T07:16:48;13.57;;;8.43;;
9675;SDS011;4876;42.656;23.292;2023-04-24T07:19:15;13.53;;;9.17;;
9675;SDS011;4876;42.656;23.292;2023-04-24T07:21:42;19.00;;;8.80;;
9675;SDS011;4876;42.656;23.292;2023-04-24T07:24:10;16.97;;;8.87;;
9675;SDS011;4876;42.656;23.292;2023-04-24T07:26:38;9.47;;;7.23;;
9675;SDS011;4876;42.656;23.292;2023-04-24T07:29:05;9.97;;;6.80;;
9675;SDS011;4876;42.656;23.292;2023-04-24T07:31:32;7.03;;;5.53;;
9675;SDS011;4876;42.656;23.292;2023-04-24T07:33:59;8.47;;;5.83;;
9675;SDS011;4876;42.656;23.292;2023-04-24T07:36:25;8.47;;;6.10;;
9675;SDS011;4876;42.656;23.292;2023-04-24T07:38:53;12.67;;;7.00;;
9675;SDS011;4876;42.656;23.292;2023-04-24T07:41:21;8.27;;;6.47;;
9675;SDS011;4876;42.656;23.292;2023-04-24T07:43:49;7.33;;;5.07;;
9675;SDS011;4876;42.656;23.292;2023-04-24T07:46:16;9.23;;;5.60;;
9675;SDS011;4876;42.656;23.292;2023-04-24T07:48:43;13.47;;;7.17;;
9675;SDS011;4876;42.656;23.292;2023-04-24T07:51:09;9.27;;;6.53;;
9675;SDS011;4876;42.656;23.292;2023-04-24T07:53:38;10.37;;;6.23;;
9675;SDS011;4876;42.656;23.292;2023-04-24T07:56:05;11.30;;;7.30;;
9675;SDS011;4876;42.656;23.292;2023-04-24T07:58:33;12.10;;;6.60;;
9675;SDS011;4876;42.656;23.292;2023-04-24T08:01:00;8.93;;;6.57;;
9675;SDS011;4876;42.656;23.292;2023-04-24T08:03:27;11.40;;;6.60;;
9675;SDS011;4876;42.656;23.292;2023-04-24T08:05:54;8.60;;;6.63;;
9675;SDS011;4876;42.656;23.292;2023-04-24T08:08:21;13.67;;;6.60;;
9675;SDS011;4876;42.656;23.292;2023-04-24T08:10:48;14.83;;;7.77;;
9675;SDS011;4876;42.656;23.292;2023-04-24T08:13:16;11.37;;;6.70;;
9675;SDS011;4876;42.656;23.292;2023-04-24T08:15:44;18.17;;;7.80;;
9675;SDS011;4876;42.656;23.292;2023-04-24T08:18:11;17.63;;;6.80;;
9675;SDS011;4876;42.656;23.292;2023-04-24T08:20:38;20.03;;;7.87;;
9675;SDS011;4876;42.656;23.292;2023-04-24T08:23:05;11.13;;;6.50;;
9675;SDS011;4876;42.656;23.292;2023-04-24T08:25:32;11.27;;;7.27;;
9675;SDS011;4876;42.656;23.292;2023-04-24T08:28:01;10.13;;;6.87;;
9675;SDS011;4876;42.656;23.292;2023-04-24T08:30:29;10.47;;;7.20;;
9675;SDS011;4876;42.656;23.292;2023-04-24T08:32:57;11.87;;;6.53;;
9675;SDS011;4876;42.656;23.292;2023-04-24T08:35:24;10.73;;;6.77;;
9675;SDS011;4876;42.656;23.292;2023-04-24T08:37:51;11.33;;;6.60;;
9675;SDS011;4876;42.656;23.292;2023-04-24T08:40:18;7.90;;;5.93;;
9675;SDS011;4876;42.656;23.292;2023-04-24T08:42:53;9.87;;;6.83;;
9675;SDS011;4876;42.656;23.292;2023-04-24T08:45:21;13.23;;;7.53;;
9675;SDS011;4876;42.656;23.292;2023-04-24T08:47:48;14.00;;;7.07;;
9675;SDS011;4876;42.656;23.292;2023-04-24T08:50:16;11.17;;;7.23;;
9675;SDS011;4876;42.656;23.292;2023-04-24T08:52:43;13.83;;;7.67;;
9675;SDS011;4876;42.656;23.292;2023-04-24T08:55:10;8.87;;;7.40;;
9675;SDS011;4876;42.656;23.292;2023-04-24T08:57:37;14.80;;;7.77;;
9675;SDS011;4876;42.656;23.292;2023-04-24T09:00:05;8.87;;;6.57;;
9675;SDS011;4876;42.656;23.292;2023-04-24T09:02:33;8.53;;;6.47;;
9675;SDS011;4876;42.656;23.292;2023-04-24T09:05:00;12.03;;;7.23;;
9675;SDS011;4876;42.656;23.292;2023-04-24T09:07:29;10.83;;;7.33;;
9675;SDS011;4876;42.656;23.292;2023-04-24T09:09:58;9.33;;;7.37;;
9675;SDS011;4876;42.656;23.292;2023-04-24T09:12:25;7.00;;;6.20;;
9675;SDS011;4876;42.656;23.292;2023-04-24T09:14:52;13.00;;;6.33;;
9675;SDS011;4876;42.656;23.292;2023-04-24T09:17:20;13.43;;;6.87;;
9675;SDS011;4876;42.656;23.292;2023-04-24T09:19:48;9.33;;;6.33;;
9675;SDS011;4876;42.656;23.292;2023-04-24T09:22:16;11.87;;;6.70;;
9675;SDS011;4876;42.656;23.292;2023-04-24T09:24:44;8.23;;;6.30;;
9675;SDS011;4876;42.656;23.292;2023-04-24T09:27:11;7.50;;;6.43;;
9675;SDS011;4876;42.656;23.292;2023-04-24T09:29:41;9.67;;;5.93;;
9675;SDS011;4876;42.656;23.292;2023-04-24T09:32:20;8.13;;;5.80;;
9675;SDS011;4876;42.656;23.292;2023-04-24T09:35:04;8.63;;;5.70;;
9675;SDS011;4876;42.656;23.292;2023-04-24T09:37:34;8.43;;;6.23;;
9675;SDS011;4876;42.656;23.292;2023-04-24T09:40:09;12.57;;;6.00;;
9675;SDS011;4876;42.656;23.292;2023-04-24T09:42:38;12.83;;;6.30;;
9675;SDS011;4876;42.656;23.292;2023-04-24T09:45:08;13.60;;;5.90;;
9675;SDS011;4876;42.656;23.292;2023-04-24T09:47:36;8.10;;;6.47;;
9675;SDS011;4876;42.656;23.292;2023-04-24T09:50:09;9.03;;;6.00;;
9675;SDS011;4876;42.656;23.292;2023-04-24T09:52:39;9.73;;;6.23;;
9675;SDS011;4876;42.656;23.292;2023-04-24T09:55:11;12.27;;;6.60;;
9675;SDS011;4876;42.656;23.292;2023-04-24T09:57:50;10.70;;;6.60;;
9675;SDS011;4876;42.656;23.292;2023-04-24T10:00:18;10.17;;;5.87;;
9675;SDS011;4876;42.656;23.292;2023-04-24T10:02:49;17.57;;;6.63;;
9675;SDS011;4876;42.656;23.292;2023-04-24T10:05:18;11.03;;;6.57;;
9675;SDS011;4876;42.656;23.292;2023-04-24T10:07:45;14.73;;;5.87;;
9675;SDS011;4876;42.656;23.292;2023-04-24T10:10:13;13.80;;;5.90;;
9675;SDS011;4876;42.656;23.292;2023-04-24T10:12:40;10.10;;;5.80;;
9675;SDS011;4876;42.656;23.292;2023-04-24T10:15:09;10.00;;;5.40;;
9675;SDS011;4876;42.656;23.292;2023-04-24T10:17:39;6.40;;;5.17;;
9675;SDS011;4876;42.656;23.292;2023-04-24T10:20:07;11.63;;;5.70;;
9675;SDS011;4876;42.656;23.292;2023-04-24T10:22:34;6.53;;;5.33;;
9675;SDS011;4876;42.656;23.292;2023-04-24T10:25:03;16.13;;;5.40;;
9675;SDS011;4876;42.656;23.292;2023-04-24T10:27:33;6.73;;;5.30;;
9675;SDS011;4876;42.656;23.292;2023-04-24T10:30:02;7.93;;;5.47;;
9675;SDS011;4876;42.656;23.292;2023-04-24T10:32:29;6.60;;;4.80;;
9675;SDS011;4876;42.656;23.292;2023-04-24T10:34:56;10.73;;;4.87;;
9675;SDS011;4876;42.656;23.292;2023-04-24T10:37:23;6.40;;;4.17;;
9675;SDS011;4876;42.656;23.292;2023-04-24T10:39:51;12.57;;;4.83;;
9675;SDS011;4876;42.656;23.292;2023-04-24T10:42:19;6.13;;;4.27;;
9675;SDS011;4876;42.656;23.292;2023-04-24T10:44:48;12.63;;;4.60;;
9675;SDS011;4876;42.656;23.292;2023-04-24T10:47:15;5.93;;;4.37;;
9675;SDS011;4876;42.656;23.292;2023-04-24T10:49:42;8.67;;;4.33;;
9675;SDS011;4876;42.656;23.292;2023-04-24T10:52:09;5.40;;;3.93;;
9675;SDS011;4876;42.656;23.292;2023-04-24T10:54:41;5.43;;;3.60;;
9675;SDS011;4876;42.656;23.292;2023-04-24T10:57:27;3.77;;;3.47;;
9675;SDS011;4876;42.656;23.292;2023-04-24T11:00:19;6.57;;;3.53;;
9675;SDS011;4876;42.656;23.292;2023-04-24T11:02:47;7.83;;;3.60;;
9675;SDS011;4876;42.656;23.292;2023-04-24T11:05:18;7.03;;;3.80;;
9675;SDS011;4876;42.656;23.292;2023-04-24T11:10:38;7.97;;;4.10;;
9675;SDS011;4876;42.656;23.292;2023-04-24T11:13:06;9.60;;;4.10;;
9675;SDS011;4876;42.656;23.292;2023-04-24T11:15:35;7.87;;;3.70;;
9675;SDS011;4876;42.656;23.292;2023-04-24T11:18:02;8.20;;;3.40;;
9675;SDS011;4876;42.656;23.292;2023-04-24T11:20:29;8.77;;;3.73;;
9675;SDS011;4876;42.656;23.292;2023-04-24T11:22:57;8.40;;;4.00;;
9675;SDS011;4876;42.656;23.292;2023-04-24T11:25:31;7.33;;;3.37;;
9675;SDS011;4876;42.656;23.292;2023-04-24T11:28:05;4.00;;;3.40;;
9675;SDS011;4876;42.656;23.292;2023-04-24T11:30:32;3.73;;;2.87;;
9675;SDS011;4876;42.656;23.292;2023-04-24T11:33:04;6.67;;;2.77;;
9675;SDS011;4876;42.656;23.292;2023-04-24T11:35:34;8.40;;;3.10;;
9675;SDS011;4876;42.656;23.292;2023-04-24T11:38:03;7.43;;;3.10;;
9675;SDS011;4876;42.656;23.292;2023-04-24T11:40:30;5.97;;;3.67;;
9675;SDS011;4876;42.656;23.292;2023-04-24T11:42:59;7.80;;;4.17;;
9675;SDS011;4876;42.656;23.292;2023-04-24T11:45:26;4.20;;;3.80;;
9675;SDS011;4876;42.656;23.292;2023-04-24T11:47:54;4.97;;;4.40;;
9675;SDS011;4876;42.656;23.292;2023-04-24T11:50:23;5.97;;;4.80;;
9675;SDS011;4876;42.656;23.292;2023-04-24T11:52:53;6.57;;;4.83;;
9675;SDS011;4876;42.656;23.292;2023-04-24T11:55:24;4.40;;;4.00;;
9675;SDS011;4876;42.656;23.292;2023-04-24T11:57:53;5.43;;;4.07;;
9675;SDS011;4876;42.656;23.292;2023-04-24T12:00:22;4.50;;;4.10;;
9675;SDS011;4876;42.656;23.292;2023-04-24T12:02:51;5.67;;;4.30;;
9675;SDS011;4876;42.656;23.292;2023-04-24T12:05:21;8.30;;;4.20;;
9675;SDS011;4876;42.656;23.292;2023-04-24T12:07:49;4.60;;;3.73;;
9675;SDS011;4876;42.656;23.292;2023-04-24T12:10:19;5.23;;;4.33;;
9675;SDS011;4876;42.656;23.292;2023-04-24T12:12:46;6.07;;;4.00;;
9675;SDS011;4876;42.656;23.292;2023-04-24T12:15:15;4.10;;;3.77;;
9675;SDS011;4876;42.656;23.292;2023-04-24T12:17:43;5.00;;;4.50;;
9675;SDS011;4876;42.656;23.292;2023-04-24T12:20:10;5.50;;;3.77;;
9675;SDS011;4876;42.656;23.292;2023-04-24T12:22:46;5.67;;;4.03;;
9675;SDS011;4876;42.656;23.292;2023-04-24T12:25:16;4.57;;;3.60;;
9675;SDS011;4876;42.656;23.292;2023-04-24T12:27:44;9.97;;;3.70;;
9675;SDS011;4876;42.656;23.292;2023-04-24T12:30:12;8.40;;;3.80;;
9675;SDS011;4876;42.656;23.292;2023-04-24T12:32:41;7.20;;;3.57;;
9675;SDS011;4876;42.656;23.292;2023-04-24T12:35:08;13.53;;;4.00;;
9675;SDS011;4876;42.656;23.292;2023-04-24T12:37:35;5.13;;;3.10;;
9675;SDS011;4876;42.656;23.292;2023-04-24T12:40:04;3.97;;;3.43;;
9675;SDS011;4876;42.656;23.292;2023-04-24T12:42:33;6.20;;;4.27;;
9675;SDS011;4876;42.656;23.292;2023-04-24T12:45:01;11.47;;;4.03;;
9675;SDS011;4876;42.656;23.292;2023-04-24T12:47:30;5.10;;;3.73;;
9675;SDS011;4876;42.656;23.292;2023-04-24T12:49:58;8.97;;;5.13;;
9675;SDS011;4876;42.656;23.292;2023-04-24T12:52:25;12.33;;;5.33;;
9675;SDS011;4876;42.656;23.292;2023-04-24T12:54:54;8.30;;;4.50;;
9675;SDS011;4876;42.656;23.292;2023-04-24T12:57:22;5.87;;;4.20;;
9675;SDS011;4876;42.656;23.292;2023-04-24T12:59:49;6.97;;;3.70;;
9675;SDS011;4876;42.656;23.292;2023-04-24T13:02:16;8.13;;;4.27;;
9675;SDS011;4876;42.656;23.292;2023-04-24T13:04:44;5.03;;;3.60;;
9675;SDS011;4876;42.656;23.292;2023-04-24T13:07:11;6.27;;;3.73;;
9675;SDS011;4876;42.656;23.292;2023-04-24T13:09:39;9.20;;;4.63;;
9675;SDS011;4876;42.656;23.292;2023-04-24T13:12:06;7.70;;;3.80;;
9675;SDS011;4876;42.656;23.292;2023-04-24T13:14:34;11.67;;;3.57;;
9675;SDS011;4876;42.656;23.292;2023-04-24T13:17:01;8.60;;;3.73;;
9675;SDS011;4876;42.656;23.292;2023-04-24T13:19:29;5.67;;;3.83;;
9675;SDS011;4876;42.656;23.292;2023-04-24T13:21:56;5.77;;;3.57;;
9675;SDS011;4876;42.656;23.292;2023-04-24T13:24:24;8.23;;;3.90;;
9675;SDS011;4876;42.656;23.292;2023-04-24T13:26:51;4.40;;;3.60;;
9675;SDS011;4876;42.656;23.292;2023-04-24T13:29:18;7.43;;;3.77;;
9675;SDS011;4876;42.656;23.292;2023-04-24T13:31:47;4.23;;;3.53;;
9675;SDS011;4876;42.656;23.292;2023-04-24T13:34:14;7.47;;;3.43;;
9675;SDS011;4876;42.656;23.292;2023-04-24T13:36:41;9.93;;;3.50;;
9675;SDS011;4876;42.656;23.292;2023-04-24T13:39:08;7.03;;;3.60;;
9675;SDS011;4876;42.656;23.292;2023-04-24T13:41:35;5.30;;;3.97;;
9675;SDS011;4876;42.656;23.292;2023-04-24T13:44:02;4.90;;;3.57;;
9675;SDS011;4876;42.656;23.292;2023-04-24T13:46:29;6.07;;;3.50;;
9675;SDS011;4876;42.656;23.292;2023-04-24T13:48:57;3.80;;;3.50;;
9675;SDS011;4876;42.656;23.292;2023-04-24T13:51:25;5.73;;;3.83;;
9675;SDS011;4876;42.656;23.292;2023-04-24T13:53:52;4.27;;;3.67;;
9675;SDS011;4876;42.656;23.292;2023-04-24T13:56:20;10.43;;;4.97;;
9675;SDS011;4876;42.656;23.292;2023-04-24T13:58:47;5.67;;;3.73;;
9675;SDS011;4876;42.656;23.292;2023-04-24T14:01:14;4.47;;;3.77;;
9675;SDS011;4876;42.656;23.292;2023-04-24T14:03:42;10.43;;;3.90;;
9675;SDS011;4876;42.656;23.292;2023-04-24T14:06:10;9.03;;;3.83;;
9675;SDS011;4876;42.656;23.292;2023-04-24T14:08:37;6.60;;;3.60;;
9675;SDS011;4876;42.656;23.292;2023-04-24T14:11:04;5.20;;;3.60;;
9675;SDS011;4876;42.656;23.292;2023-04-24T14:13:31;7.80;;;3.60;;
9675;SDS011;4876;42.656;23.292;2023-04-24T14:15:58;8.57;;;3.63;;
9675;SDS011;4876;42.656;23.292;2023-04-24T14:18:25;4.97;;;3.40;;
9675;SDS011;4876;42.656;23.292;2023-04-24T14:20:52;5.30;;;3.60;;
9675;SDS011;4876;42.656;23.292;2023-04-24T14:23:20;6.43;;;3.63;;
9675;SDS011;4876;42.656;23.292;2023-04-24T14:25:47;4.23;;;3.13;;
9675;SDS011;4876;42.656;23.292;2023-04-24T14:28:16;6.73;;;4.03;;
9675;SDS011;4876;42.656;23.292;2023-04-24T14:30:44;5.83;;;3.70;;
9675;SDS011;4876;42.656;23.292;2023-04-24T14:33:10;7.57;;;5.00;;
9675;SDS011;4876;42.656;23.292;2023-04-24T14:35:38;5.20;;;3.23;;
9675;SDS011;4876;42.656;23.292;2023-04-24T14:38:05;5.60;;;3.27;;
9675;SDS011;4876;42.656;23.292;2023-04-24T14:40:33;3.80;;;3.03;;
9675;SDS011;4876;42.656;23.292;2023-04-24T14:43:00;9.33;;;4.50;;
9675;SDS011;4876;42.656;23.292;2023-04-24T14:45:26;6.13;;;4.00;;
9675;SDS011;4876;42.656;23.292;2023-04-24T14:47:53;5.93;;;3.00;;
9675;SDS011;4876;42.656;23.292;2023-04-24T14:50:20;7.77;;;3.33;;
9675;SDS011;4876;42.656;23.292;2023-04-24T14:52:47;10.50;;;5.60;;
9675;SDS011;4876;42.656;23.292;2023-04-24T14:55:14;14.40;;;4.60;;
9675;SDS011;4876;42.656;23.292;2023-04-24T14:57:43;6.77;;;4.23;;
9675;SDS011;4876;42.656;23.292;2023-04-24T15:00:10;10.87;;;3.40;;